Flight Number: EUR2346 Duration: 1:10
Departure: Stockholm Arlanda (ESSA) at 18:20 Distance: 317 Nm
Arrival: Gdansk Zechowo (EPGD) at 19:30 Equipment: CRJ700

Weather Information
Stockholm / Arlanda, Sweden (ESSA) 59-39N 017-57E 61M May 22, 2018 - 03:20 PM EDT / 2018.05.22 1920 UTC
Wind: from the S (180 degrees) at 7 MPH (6 KT):0
Visibility: greater than 7 mile(s):0 Temperature: 64 F (18 C) Dew Point: 41 F (5 C) Relative Humidity: 42% Pressure (altimeter): 30.06 in. Hg (1018 hPa)
ob: ESSA 221920Z 18006KT CAVOK 18/05 Q1018 NOSIG cycle: 19
Sunrise: 02:03 Sunset: 19:26 (UTC)

Gdansk-Rebiechowo, Poland (EPGD) 54-23N 018-28E 138M May 22, 2018 - 03:30 PM EDT / 2018.05.22 1930 UTC
Wind: Variable at 2 MPH (2 KT):0
Visibility: greater than 7 mile(s):0 Temperature: 51 F (11 C) Dew Point: 48 F (9 C) Relative Humidity: 87% Pressure (altimeter): 30.06 in. Hg (1018 hPa)
ob: EPGD 221930Z VRB02KT CAVOK 11/09 Q1018 cycle: 19
Sunrise: 02:34 Sunset: 18:51 (UTC)

TAF:2018/05/22 18:33 TAF TAF EPGD 221730Z 2218/2318 VRB03KT CAVOK PROB40 2223/2305 4000 BR BECMG 2308/2310 02010KT

Previous Pireps for this route
Date Aircraft Flight time Fuel used Landing rate On time
2015-01-18CRJ7001.1530190No
2015-05-07CRJ7000.5833110Yes
2015-05-08CRJ7000.5533420Yes
2015-06-10CRJ70001.213990-192Yes
2015-07-04CRJ7001.152988-239Yes
2016-01-29B73701.1911093-147Charter
(pireps marked green are flown by you)

Route map